Time;durP1;ratioP1;P1;durP2;ratioP2;P2;SDS_P1;SDS_P2;PMS_P1;PMS_P2;Temp;Humidity;BMP_temperature;BMP_pressure;BME280_temperature;BME280_humidity;BME280_pressure;Samples;Min_cycle;Max_cycle;Signal;HPM_P1;HPM_P2
2021/04/13 00:01:31;;;;;;;13.90;12.60;;;29.60;96.50;;;;;;4991482;28;20218;-52
2021/04/13 00:04:11;;;;;;;14.13;12.93;;;29.70;96.60;;;;;;5013576;28;20261;-53
2021/04/13 00:06:44;;;;;;;14.30;13.02;;;29.70;96.50;;;;;;5072365;28;20212;-53
2021/04/13 00:09:18;;;;;;;16.40;14.80;;;29.80;96.60;;;;;;5072633;28;20197;-51
2021/04/13 00:11:49;;;;;;;16.05;14.50;;;29.80;96.50;;;;;;5072483;28;20237;-54
2021/04/13 00:14:21;;;;;;;16.83;15.32;;;29.80;96.50;;;;;;5088899;28;20232;-52
2021/04/13 00:16:51;;;;;;;16.42;15.00;;;29.90;96.50;;;;;;5093222;28;20211;-55
2021/04/13 00:19:23;;;;;;;15.80;14.43;;;29.90;96.40;;;;;;5027859;28;20724;-53
2021/04/13 00:21:53;;;;;;;16.38;14.98;;;29.90;96.30;;;;;;5030042;28;20209;-55
2021/04/13 00:24:24;;;;;;;15.73;14.32;;;29.90;96.30;;;;;;5029328;28;20213;-54
2021/04/13 00:26:56;;;;;;;15.75;14.15;;;30.00;96.30;;;;;;4992063;28;20212;-54
2021/04/13 00:29:29;;;;;;;15.95;14.40;;;29.90;96.20;;;;;;4991210;28;20739;-49
2021/04/13 00:32:00;;;;;;;15.38;14.02;;;30.00;96.30;;;;;;4990950;28;20246;-50
2021/04/13 00:34:40;;;;;;;16.55;15.02;;;30.00;96.30;;;;;;4992053;28;20656;-53
2021/04/13 00:37:13;;;;;;;17.08;15.55;;;30.00;96.30;;;;;;4990509;28;20200;-51
2021/04/13 00:39:43;;;;;;;16.05;14.57;;;30.10;96.30;;;;;;4989113;28;20280;-51
2021/04/13 00:42:14;;;;;;;14.75;13.27;;;30.10;96.30;;;;;;4987206;28;20224;-52
2021/04/13 00:44:47;;;;;;;14.13;12.93;;;30.10;96.40;;;;;;5038937;28;20205;-51
2021/04/13 00:47:19;;;;;;;12.70;11.60;;;30.10;96.30;;;;;;5044271;28;20213;-53
2021/04/13 00:49:51;;;;;;;12.98;11.80;;;30.10;96.20;;;;;;5052725;28;20233;-54
2021/04/13 00:52:22;;;;;;;13.15;12.00;;;30.20;96.20;;;;;;5089859;28;20662;-54
2021/04/13 00:54:53;;;;;;;12.93;11.75;;;30.10;96.10;;;;;;5096330;28;20295;-50
2021/04/13 00:57:24;;;;;;;12.95;11.75;;;30.20;96.20;;;;;;5095400;28;20196;-52
2021/04/13 00:59:55;;;;;;;13.45;12.05;;;30.20;96.10;;;;;;5095710;28;20193;-55
2021/04/13 01:02:26;;;;;;;12.55;11.43;;;30.20;96.10;;;;;;5094225;28;20213;-54
2021/04/13 01:04:57;;;;;;;14.98;13.65;;;30.20;96.10;;;;;;5096498;28;20296;-56
2021/04/13 01:07:33;;;;;;;14.85;13.55;;;30.20;96.10;;;;;;5094940;28;20197;-51
2021/04/13 01:10:08;;;;;;;16.55;15.15;;;30.20;96.00;;;;;;5095710;28;20689;-54
2021/04/13 01:12:40;;;;;;;17.75;16.15;;;30.30;96.00;;;;;;5092804;28;20683;-51
2021/04/13 01:15:13;;;;;;;17.15;15.55;;;30.30;96.00;;;;;;5095046;28;20200;-54
2021/04/13 01:17:43;;;;;;;17.85;16.25;;;30.30;96.00;;;;;;5096078;28;20219;-55
2021/04/13 01:20:23;;;;;;;16.80;15.32;;;30.30;95.90;;;;;;5032481;28;20218;-51
2021/04/13 01:22:58;;;;;;;17.83;16.27;;;30.30;96.00;;;;;;5031339;28;20222;-54
2021/04/13 01:25:29;;;;;;;16.67;15.05;;;30.30;95.90;;;;;;4974343;28;20236;-52
2021/04/13 01:28:00;;;;;;;18.30;16.75;;;30.30;96.00;;;;;;4975208;28;20212;-53
2021/04/13 01:30:34;;;;;;;18.52;16.88;;;30.30;96.00;;;;;;4974518;28;20626;-47
2021/04/13 01:33:11;;;;;;;18.58;16.88;;;30.30;95.90;;;;;;4974546;28;20657;-54
2021/04/13 01:35:44;;;;;;;16.80;15.10;;;30.30;96.00;;;;;;4974001;28;20650;-54
2021/04/13 01:38:21;;;;;;;18.67;17.08;;;30.30;96.00;;;;;;4972365;28;20232;-54
2021/04/13 01:41:04;;;;;;;17.65;16.05;;;30.30;96.00;;;;;;4973513;28;20611;-50
2021/04/13 01:43:36;;;;;;;15.82;14.50;;;30.30;96.00;;;;;;4974329;28;20232;-53
2021/04/13 01:46:07;;;;;;;17.20;15.80;;;30.30;96.10;;;;;;5013596;28;20246;-48
2021/04/13 01:48:37;;;;;;;16.33;14.98;;;30.30;96.20;;;;;;5013734;28;20231;-52
2021/04/13 01:51:08;;;;;;;16.75;15.07;;;30.40;96.20;;;;;;5073192;28;20241;-54
2021/04/13 01:53:40;;;;;;;16.20;14.70;;;30.40;96.20;;;;;;5069419;28;20717;-52
2021/04/13 01:56:11;;;;;;;16.35;14.95;;;30.40;96.20;;;;;;5072261;28;20194;-53
2021/04/13 01:58:44;;;;;;;16.15;14.73;;;30.40;96.30;;;;;;5072672;28;20292;-52
2021/04/13 02:01:21;;;;;;;16.63;15.32;;;30.40;96.30;;;;;;5072401;28;20193;-51
2021/04/13 02:03:55;;;;;;;17.88;16.27;;;30.40;96.30;;;;;;5072625;28;20225;-56
2021/04/13 02:06:28;;;;;;;17.73;16.17;;;30.40;96.30;;;;;;5072454;28;20200;-52
2021/04/13 02:09:05;;;;;;;16.50;14.90;;;30.40;96.20;;;;;;5094908;28;20269;-52
2021/04/13 02:11:36;;;;;;;17.13;15.52;;;30.40;96.20;;;;;;5095350;28;20242;-54
2021/04/13 02:14:08;;;;;;;18.02;16.48;;;30.40;96.20;;;;;;5092436;28;20498;-54
2021/04/13 02:16:50;;;;;;;16.30;14.82;;;30.40;96.20;;;;;;5096260;28;20667;-53
2021/04/13 02:19:21;;;;;;;16.98;15.38;;;30.50;96.30;;;;;;5051228;28;20269;-55
2021/04/13 02:21:52;;;;;;;16.20;14.80;;;30.50;96.30;;;;;;5011299;28;20579;-53
2021/04/13 02:24:23;;;;;;;16.15;14.77;;;30.50;96.40;;;;;;5008644;28;20319;-52
2021/04/13 02:26:57;;;;;;;15.35;14.18;;;30.50;96.40;;;;;;5012061;28;20335;-56
2021/04/13 02:29:31;;;;;;;15.52;14.20;;;30.50;96.50;;;;;;5011329;28;20239;-56
2021/04/13 02:32:04;;;;;;;14.35;13.13;;;30.50;96.50;;;;;;5011693;28;20673;-55
2021/04/13 02:34:38;;;;;;;14.32;13.00;;;30.60;96.50;;;;;;5011729;28;20246;-52
2021/04/13 02:37:12;;;;;;;16.17;14.77;;;30.60;96.60;;;;;;5026953;28;20316;-53
2021/04/13 02:39:43;;;;;;;16.30;14.70;;;30.60;96.60;;;;;;5051438;28;20198;-56
2021/04/13 02:42:17;;;;;;;16.00;14.50;;;30.60;96.50;;;;;;5051278;28;20248;-51
2021/04/13 02:45:05;;;;;;;14.93;13.52;;;30.70;96.50;;;;;;5048210;28;20217;-50
2021/04/13 02:47:38;;;;;;;14.75;13.05;;;30.70;96.40;;;;;;5092829;28;20212;-54
2021/04/13 02:50:09;;;;;;;16.65;15.15;;;30.70;96.50;;;;;;5094811;28;20672;-53
2021/04/13 02:52:43;;;;;;;17.60;16.00;;;30.80;96.50;;;;;;5094634;28;20617;-53
2021/04/13 02:55:19;;;;;;;18.10;16.30;;;30.80;96.50;;;;;;5094488;28;20204;-53
2021/04/13 02:57:50;;;;;;;19.05;17.20;;;30.80;96.40;;;;;;5094182;28;20205;-54
2021/04/13 03:00:23;;;;;;;18.17;16.48;;;30.80;96.50;;;;;;5093977;28;20196;-49
2021/04/13 03:02:57;;;;;;;18.10;16.38;;;30.90;96.50;;;;;;5094312;28;20240;-52
2021/04/13 03:05:28;;;;;;;18.73;16.92;;;30.90;96.40;;;;;;5094276;28;20200;-53
2021/04/13 03:08:00;;;;;;;16.55;14.98;;;30.90;96.40;;;;;;5093350;28;20212;-51
2021/04/13 03:10:33;;;;;;;18.35;16.63;;;31.00;96.30;;;;;;5092871;28;20201;-51
2021/04/13 03:13:07;;;;;;;19.17;16.55;;;31.00;96.20;;;;;;5093001;28;20812;-50
2021/04/13 03:15:38;;;;;;;16.67;15.13;;;31.00;96.10;;;;;;5091487;28;20247;-52
2021/04/13 03:18:10;;;;;;;16.33;14.77;;;31.10;96.10;;;;;;5030993;28;20436;-52
2021/04/13 03:20:42;;;;;;;16.90;15.35;;;31.10;95.90;;;;;;5030762;28;20219;-52
2021/04/13 03:23:12;;;;;;;15.10;13.60;;;31.20;95.90;;;;;;5030966;28;20215;-54
2021/04/13 03:25:45;;;;;;;14.20;12.88;;;31.20;95.90;;;;;;5031280;28;20210;-55
2021/04/13 03:28:15;;;;;;;15.18;13.70;;;31.20;95.90;;;;;;5029046;28;20213;-52
2021/04/13 03:30:46;;;;;;;15.10;13.60;;;31.30;95.80;;;;;;5030473;28;20264;-53
2021/04/13 03:33:18;;;;;;;14.00;12.65;;;31.30;95.70;;;;;;4967799;28;20205;-53
2021/04/13 03:35:48;;;;;;;16.70;14.73;;;31.40;95.70;;;;;;4972151;28;20978;-54
2021/04/13 03:38:21;;;;;;;15.95;14.55;;;31.40;95.70;;;;;;4971833;28;20288;-49
2021/04/13 03:40:52;;;;;;;15.02;13.63;;;31.50;95.60;;;;;;4971831;28;20212;-55
2021/04/13 03:43:23;;;;;;;14.52;13.02;;;31.50;95.60;;;;;;5016813;28;20263;-54
2021/04/13 03:45:55;;;;;;;15.43;13.88;;;31.60;95.50;;;;;;5030927;28;20252;-51
2021/04/13 03:48:27;;;;;;;13.70;12.35;;;31.70;95.60;;;;;;5031118;28;20260;-51
2021/04/13 03:51:00;;;;;;;12.93;11.80;;;31.70;95.40;;;;;;5030452;28;20245;-51
2021/04/13 03:53:38;;;;;;;12.55;11.25;;;31.80;95.30;;;;;;5029120;28;20210;-52
2021/04/13 03:56:09;;;;;;;12.85;11.63;;;31.90;95.10;;;;;;5030436;28;20199;-52
2021/04/13 03:58:41;;;;;;;13.88;12.25;;;32.00;94.70;;;;;;5030437;28;20267;-55
2021/04/13 04:01:13;;;;;;;12.93;11.75;;;32.10;94.40;;;;;;5030527;28;20230;-53
2021/04/13 04:03:46;;;;;;;12.98;11.68;;;32.10;94.50;;;;;;5046667;28;20224;-54
2021/04/13 04:06:17;;;;;;;12.85;11.70;;;32.20;94.40;;;;;;5093765;28;20197;-55
2021/04/13 04:08:49;;;;;;;13.05;11.75;;;32.30;94.20;;;;;;5008533;28;20235;-54
2021/04/13 04:11:30;;;;;;;13.15;11.82;;;32.30;94.00;;;;;;5008718;28;20215;-54
2021/04/13 04:14:00;;;;;;;11.88;10.77;;;32.40;94.30;;;;;;4894104;29;20231;-53
2021/04/13 04:16:34;;;;;;;13.43;10.98;;;32.50;92.80;;;;;;4895909;29;20248;-51
2021/04/13 04:19:14;;;;;;;11.05;10.00;;;32.60;92.20;;;;;;4893077;29;20218;-54
2021/04/13 04:21:45;;;;;;;11.40;10.30;;;32.70;91.00;;;;;;4895680;29;20747;-53
2021/04/13 04:24:29;;;;;;;11.38;10.38;;;32.70;91.10;;;;;;4899152;29;20730;-54
2021/04/13 04:27:00;;;;;;;10.30;9.40;;;32.80;91.00;;;;;;4900202;29;20204;-54
2021/04/13 04:29:40;;;;;;;10.75;9.75;;;32.90;91.30;;;;;;4900136;29;20684;-55
2021/04/13 04:32:17;;;;;;;9.90;8.95;;;33.00;90.50;;;;;;4900786;29;20690;-52
2021/04/13 04:35:07;;;;;;;10.95;9.85;;;33.10;90.80;;;;;;4919661;29;20221;-53
2021/04/13 04:37:39;;;;;;;11.35;10.25;;;33.20;90.70;;;;;;4923168;28;20677;-50
2021/04/13 04:40:20;;;;;;;11.60;10.00;;;33.30;87.50;;;;;;4956086;28;20243;-53
2021/04/13 04:42:52;;;;;;;10.00;9.00;;;33.40;84.70;;;;;;4976851;28;20274;-51
2021/04/13 04:45:35;;;;;;;10.13;9.27;;;33.40;86.20;;;;;;5019452;28;20294;-53
2021/04/13 04:48:23;;;;;;;10.40;9.30;;;33.50;86.30;;;;;;5035818;28;20821;-53
2021/04/13 04:50:54;;;;;;;10.43;9.43;;;33.60;84.10;;;;;;5036060;28;20214;-51
2021/04/13 04:53:25;;;;;;;11.10;10.10;;;33.60;83.80;;;;;;5035255;28;20286;-54
2021/04/13 04:55:57;;;;;;;10.25;9.25;;;33.60;84.00;;;;;;5035194;28;20309;-50
2021/04/13 04:58:27;;;;;;;10.07;9.07;;;33.70;85.30;;;;;;5034987;28;20266;-51
2021/04/13 05:00:57;;;;;;;9.90;8.90;;;33.80;85.90;;;;;;5035367;28;20246;-50
2021/04/13 05:03:28;;;;;;;10.30;9.30;;;33.80;85.70;;;;;;5031100;28;20301;-55
2021/04/13 05:06:00;;;;;;;9.98;8.98;;;34.00;85.40;;;;;;5035270;28;20719;-53
2021/04/13 05:08:30;;;;;;;9.57;8.68;;;34.10;83.50;;;;;;5035294;28;20210;-51
2021/04/13 05:11:01;;;;;;;9.05;8.35;;;34.00;81.10;;;;;;5061116;28;20258;-54
2021/04/13 05:13:31;;;;;;;8.57;7.78;;;34.10;82.00;;;;;;5098847;28;20320;-54
2021/04/13 05:16:01;;;;;;;9.30;8.40;;;34.10;83.10;;;;;;5096815;28;20555;-51
2021/04/13 05:18:31;;;;;;;8.63;7.80;;;34.10;79.80;;;;;;5096112;28;20277;-50
2021/04/13 05:21:03;;;;;;;8.80;7.38;;;34.20;80.30;;;;;;5097024;28;20208;-49
2021/04/13 05:23:33;;;;;;;7.30;6.60;;;34.20;79.30;;;;;;5098393;28;20225;-53
2021/04/13 05:26:03;;;;;;;8.27;7.55;;;34.20;80.90;;;;;;5095763;28;20276;-53
2021/04/13 05:28:34;;;;;;;9.25;8.43;;;34.20;82.60;;;;;;5099729;28;20232;-54
2021/04/13 05:31:04;;;;;;;8.02;7.30;;;34.30;80.40;;;;;;5099203;28;20222;-52
2021/04/13 05:33:35;;;;;;;8.57;7.78;;;34.40;80.00;;;;;;5098107;28;20212;-54
2021/04/13 05:36:07;;;;;;;8.60;7.70;;;34.40;78.20;;;;;;5096146;28;20192;-54
2021/04/13 05:38:38;;;;;;;8.18;7.40;;;34.40;76.50;;;;;;5098050;28;21110;-53
2021/04/13 05:41:10;;;;;;;5.97;5.43;;;34.40;75.60;;;;;;5098417;28;20189;-53
2021/04/13 05:43:40;;;;;;;5.93;5.38;;;34.50;77.00;;;;;;5055164;28;20222;-53
2021/04/13 05:46:13;;;;;;;5.57;5.18;;;34.60;77.60;;;;;;5055524;28;20235;-54
2021/04/13 05:48:46;;;;;;;6.25;5.63;;;34.70;78.00;;;;;;5054581;28;20609;-55
2021/04/13 05:51:18;;;;;;;8.60;7.15;;;34.80;77.70;;;;;;5055107;28;20225;-52
2021/04/13 05:53:48;;;;;;;6.57;5.97;;;34.80;73.30;;;;;;5052730;28;20229;-55
2021/04/13 05:56:20;;;;;;;6.78;6.22;;;34.80;75.40;;;;;;5055366;28;20213;-55
2021/04/13 05:58:50;;;;;;;6.90;6.20;;;34.90;77.00;;;;;;5052050;28;20210;-56
2021/04/13 06:01:20;;;;;;;6.55;6.03;;;35.00;77.80;;;;;;5055324;28;20207;-55
2021/04/13 06:03:51;;;;;;;7.22;6.35;;;35.10;77.50;;;;;;5015567;28;20224;-55
2021/04/13 06:06:22;;;;;;;7.28;6.57;;;35.20;77.00;;;;;;4956649;29;20312;-55
2021/04/13 06:08:52;;;;;;;6.40;5.90;;;35.20;74.50;;;;;;4956969;29;20265;-52
2021/04/13 06:11:24;;;;;;;8.15;7.45;;;35.30;75.20;;;;;;4956536;29;20680;-55
2021/04/13 06:13:55;;;;;;;7.57;6.88;;;35.40;74.40;;;;;;4962214;28;20672;-56
2021/04/13 06:16:29;;;;;;;6.57;5.97;;;35.50;73.90;;;;;;4994152;28;20267;-55
2021/04/13 06:18:59;;;;;;;7.43;6.90;;;35.50;74.90;;;;;;4994503;28;20307;-54
2021/04/13 06:21:31;;;;;;;6.72;6.13;;;35.60;75.00;;;;;;4995188;28;20239;-54
2021/04/13 06:24:01;;;;;;;6.88;6.28;;;35.70;75.50;;;;;;4992071;28;20239;-52
2021/04/13 06:26:31;;;;;;;6.40;5.90;;;35.70;76.70;;;;;;4990812;28;20200;-52
2021/04/13 06:29:02;;;;;;;6.25;5.65;;;35.90;76.70;;;;;;4993387;28;20261;-52
2021/04/13 06:31:32;;;;;;;6.82;6.15;;;35.90;76.50;;;;;;4994812;28;20266;-48
2021/04/13 06:34:03;;;;;;;7.28;6.68;;;36.10;76.10;;;;;;4998948;28;20210;-54
2021/04/13 06:36:35;;;;;;;7.35;6.75;;;36.20;74.10;;;;;;5043205;28;20208;-49
2021/04/13 06:39:06;;;;;;;6.50;5.90;;;36.20;73.80;;;;;;5095605;28;20193;-55
2021/04/13 06:42:14;;;;;;;7.85;7.05;;;36.30;74.80;;;;;;5094516;28;20201;-54
2021/04/13 06:45:16;;;;;;;9.13;6.90;;;36.30;73.50;;;;;;5028032;28;20251;-53
2021/04/13 06:48:07;;;;;;;6.13;5.63;;;36.40;74.10;;;;;;5092491;28;20210;-50
2021/04/13 06:50:45;;;;;;;7.18;6.47;;;36.50;74.10;;;;;;5082121;28;20234;-53
2021/04/13 06:53:21;;;;;;;7.53;6.93;;;36.60;73.00;;;;;;5092951;28;20195;-53
2021/04/13 06:56:09;;;;;;;6.32;5.82;;;36.60;72.20;;;;;;5031656;28;20950;-52
2021/04/13 06:58:46;;;;;;;8.23;7.30;;;36.70;72.90;;;;;;4972824;28;20284;-53
2021/04/13 07:01:19;;;;;;;8.57;7.50;;;36.70;70.90;;;;;;4915455;29;21064;-50
2021/04/13 07:03:51;;;;;;;9.45;7.63;;;36.60;70.30;;;;;;4914888;29;20238;-51
2021/04/13 07:06:31;;;;;;;7.43;6.82;;;36.60;70.30;;;;;;4915156;29;20249;-51
2021/04/13 07:09:03;;;;;;;6.75;6.20;;;36.50;71.00;;;;;;4903142;29;20900;-53
2021/04/13 07:11:36;;;;;;;8.10;7.38;;;36.50;71.40;;;;;;4908992;29;20303;-49
2021/04/13 07:14:09;;;;;;;8.45;7.30;;;36.50;71.40;;;;;;4907141;29;20430;-52
2021/04/13 07:16:40;;;;;;;7.90;7.10;;;36.40;71.50;;;;;;4866269;29;20216;-51
2021/04/13 07:19:15;;;;;;;6.85;6.25;;;36.50;72.00;;;;;;4812732;29;20219;-51
2021/04/13 07:21:48;;;;;;;6.20;5.70;;;36.40;71.80;;;;;;4816845;29;20215;-49
2021/04/13 07:24:24;;;;;;;6.55;5.95;;;36.40;71.30;;;;;;4861489;29;20234;-49
2021/04/13 07:26:59;;;;;;;6.00;5.50;;;36.40;70.20;;;;;;4934407;28;20208;-50
2021/04/13 07:29:31;;;;;;;6.82;6.15;;;36.40;70.80;;;;;;4934681;29;20225;-52
2021/04/13 07:32:02;;;;;;;6.30;5.60;;;36.30;70.90;;;;;;4933633;29;20249;-51
2021/04/13 07:34:33;;;;;;;5.60;5.10;;;36.20;71.00;;;;;;4950665;29;20646;-48
2021/04/13 07:37:04;;;;;;;5.53;5.03;;;36.10;71.70;;;;;;4953892;29;20909;-53
2021/04/13 07:39:36;;;;;;;5.28;4.78;;;36.10;72.10;;;;;;4914555;29;20241;-53
2021/04/13 07:42:07;;;;;;;6.38;5.68;;;36.10;73.70;;;;;;4914451;29;20574;-50
2021/04/13 07:44:53;;;;;;;6.93;6.40;;;36.10;73.80;;;;;;4978095;28;20250;-50
2021/04/13 07:47:32;;;;;;;6.50;5.95;;;36.20;73.00;;;;;;4950992;28;20209;-48
2021/04/13 07:50:03;;;;;;;6.57;5.97;;;36.30;72.80;;;;;;4895621;29;20696;-49
2021/04/13 07:52:42;;;;;;;7.53;6.80;;;36.40;73.20;;;;;;4895785;29;20306;-50
2021/04/13 07:55:22;;;;;;;6.38;5.78;;;36.50;71.80;;;;;;4895586;29;20218;-52
2021/04/13 07:57:54;;;;;;;8.30;6.25;;;36.60;72.50;;;;;;4876427;29;20291;-55
2021/04/13 08:00:26;;;;;;;6.18;5.60;;;36.70;72.30;;;;;;4894371;29;20206;-51
2021/04/13 08:02:58;;;;;;;6.20;5.70;;;36.80;72.10;;;;;;4907432;29;20640;-52
2021/04/13 08:05:39;;;;;;;6.35;5.85;;;36.90;71.20;;;;;;4949781;29;20290;-53
2021/04/13 08:08:10;;;;;;;6.03;5.50;;;36.90;71.20;;;;;;4941512;29;20257;-51
2021/04/13 08:10:42;;;;;;;5.30;4.90;;;36.90;71.00;;;;;;4943383;29;20322;-48
2021/04/13 08:13:13;;;;;;;6.90;6.20;;;37.00;71.10;;;;;;4942977;29;20253;-48
2021/04/13 08:15:51;;;;;;;6.90;5.70;;;37.00;72.30;;;;;;4952351;28;20216;-54
2021/04/13 08:18:27;;;;;;;5.55;5.05;;;37.00;73.20;;;;;;4995543;28;20240;-51
2021/04/13 08:21:13;;;;;;;6.18;5.45;;;37.00;72.70;;;;;;5057162;28;20212;-50
2021/04/13 08:23:43;;;;;;;5.53;5.03;;;37.00;72.80;;;;;;5093139;28;20700;-50
2021/04/13 08:30:07;;;;;;;4.82;4.43;;;36.90;72.10;;;;;;5088742;28;20663;-53
2021/04/13 08:32:52;;;;;;;5.22;4.72;;;37.00;72.20;;;;;;5091449;28;20199;-53
2021/04/13 08:35:34;;;;;;;6.45;5.65;;;37.00;71.50;;;;;;5090503;28;20608;-52
2021/04/13 08:38:16;;;;;;;6.15;5.57;;;36.90;71.90;;;;;;5091574;28;20293;-52
2021/04/13 08:41:15;;;;;;;5.70;5.22;;;36.90;70.90;;;;;;5093195;28;20192;-53
2021/04/13 08:43:52;;;;;;;5.45;5.05;;;36.80;70.70;;;;;;5091443;28;20231;-55
2021/04/13 08:46:30;;;;;;;6.32;5.63;;;36.80;70.50;;;;;;5091587;28;20192;-53
2021/04/13 08:49:06;;;;;;;6.45;5.88;;;36.80;69.90;;;;;;5092849;28;20675;-54
2021/04/13 08:51:40;;;;;;;7.15;6.45;;;36.70;70.10;;;;;;5069661;28;20300;-55
2021/04/13 08:54:29;;;;;;;6.30;5.70;;;36.70;70.20;;;;;;5070358;28;20189;-53
2021/04/13 08:57:01;;;;;;;5.80;5.28;;;36.60;69.40;;;;;;5070015;28;20197;-55
2021/04/13 08:59:40;;;;;;;5.95;5.22;;;36.60;68.60;;;;;;5069945;28;20227;-52
2021/04/13 09:02:13;;;;;;;6.30;5.18;;;36.60;68.90;;;;;;5069293;28;20296;-55
2021/04/13 09:04:44;;;;;;;5.00;4.50;;;36.60;68.80;;;;;;5069660;28;20330;-52
2021/04/13 09:07:22;;;;;;;8.25;4.93;;;36.60;68.90;;;;;;5068395;28;20288;-53
2021/04/13 09:09:55;;;;;;;4.97;4.57;;;36.70;68.40;;;;;;5085115;28;20192;-53
2021/04/13 09:12:31;;;;;;;5.07;4.68;;;36.70;68.00;;;;;;5073016;28;20246;-55
2021/04/13 09:15:21;;;;;;;5.50;5.05;;;36.80;68.80;;;;;;5096283;28;20220;-52
2021/04/13 09:17:59;;;;;;;5.75;5.25;;;36.90;67.30;;;;;;5096683;28;20216;-55
2021/04/13 09:20:36;;;;;;;4.78;4.38;;;37.10;68.10;;;;;;5095895;28;20227;-54
2021/04/13 09:23:21;;;;;;;4.82;4.30;;;37.20;66.80;;;;;;5095999;28;20193;-54
2021/04/13 09:26:05;;;;;;;4.72;4.25;;;37.30;66.60;;;;;;5097499;28;20648;-55
2021/04/13 09:28:53;;;;;;;5.13;4.50;;;37.40;66.40;;;;;;5034975;28;20203;-52
2021/04/13 09:31:28;;;;;;;4.82;4.43;;;37.50;66.50;;;;;;4974129;28;20268;-54
2021/04/13 09:34:14;;;;;;;5.00;4.53;;;37.60;65.60;;;;;;4975224;28;20203;-54
2021/04/13 09:36:55;;;;;;;5.05;4.55;;;37.70;64.60;;;;;;4976082;28;20216;-55
2021/04/13 09:39:33;;;;;;;4.32;3.92;;;37.80;64.50;;;;;;4975653;28;20268;-53
2021/04/13 09:42:30;;;;;;;4.38;3.97;;;37.90;64.20;;;;;;4976010;28;20398;-53
2021/04/13 09:45:23;;;;;;;4.38;3.97;;;38.00;64.70;;;;;;4925166;29;20639;-52
2021/04/13 09:48:19;;;;;;;3.80;3.50;;;38.10;64.70;;;;;;4915310;29;20218;-52
2021/04/13 09:51:03;;;;;;;4.82;4.30;;;38.10;63.90;;;;;;4876468;29;20236;-49
2021/04/13 09:53:46;;;;;;;3.83;3.53;;;38.20;63.10;;;;;;4878864;29;20239;-53
2021/04/13 09:56:55;;;;;;;4.32;3.95;;;38.30;63.70;;;;;;4882093;29;20226;-52
2021/04/13 09:59:45;;;;;;;3.55;3.25;;;38.40;63.70;;;;;;4896214;29;20207;-50
2021/04/13 10:02:44;;;;;;;3.70;3.40;;;38.40;62.40;;;;;;4917133;29;20726;-52
2021/04/13 10:05:15;;;;;;;4.22;3.83;;;38.50;62.50;;;;;;4916744;29;20294;-53
2021/04/13 10:07:53;;;;;;;4.25;3.85;;;38.50;62.60;;;;;;4914114;29;20203;-55
2021/04/13 10:10:24;;;;;;;4.90;4.40;;;38.50;62.40;;;;;;4916846;29;20251;-50
2021/04/13 10:13:24;;;;;;;5.28;4.63;;;38.50;61.70;;;;;;4916695;29;20223;-52
2021/04/13 10:16:06;;;;;;;5.05;4.65;;;38.60;61.70;;;;;;4957859;28;20219;-51
2021/04/13 10:18:56;;;;;;;5.47;4.97;;;38.50;61.10;;;;;;4955981;28;20201;-50
2021/04/13 10:21:53;;;;;;;4.88;4.47;;;38.50;61.10;;;;;;4952501;28;20224;-49
2021/04/13 10:24:40;;;;;;;4.90;4.50;;;38.50;61.40;;;;;;4963856;28;20252;-52
2021/04/13 10:27:45;;;;;;;5.50;5.00;;;38.50;61.60;;;;;;4943057;29;20217;-51
2021/04/13 10:30:30;;;;;;;5.40;4.90;;;38.60;60.30;;;;;;4955211;29;20723;-51
2021/04/13 10:33:19;;;;;;;5.65;5.15;;;38.70;61.90;;;;;;4956449;29;20296;-50
2021/04/13 10:36:43;;;;;;;6.07;5.15;;;38.90;62.20;;;;;;4889629;29;20206;-53
2021/04/13 10:39:43;;;;;;;5.57;5.07;;;39.10;62.30;;;;;;4937264;29;20245;-50
2021/04/13 10:42:55;;;;;;;5.28;4.72;;;39.40;62.00;;;;;;4937637;29;20221;-50
2021/04/13 10:45:51;;;;;;;4.57;4.20;;;39.60;61.40;;;;;;4962601;28;20311;-51
2021/04/13 10:48:44;;;;;;;5.18;4.72;;;39.90;61.40;;;;;;4992919;28;20211;-51
2021/04/13 10:51:39;;;;;;;5.00;4.50;;;40.00;60.90;;;;;;4993946;28;20204;-54
2021/04/13 10:54:44;;;;;;;4.65;4.25;;;40.20;60.20;;;;;;4940594;29;20200;-54
2021/04/13 10:57:31;;;;;;;5.05;4.55;;;40.30;59.90;;;;;;4943267;29;20204;-51
2021/04/13 11:00:32;;;;;;;4.93;4.53;;;40.30;59.10;;;;;;4918623;29;20194;-50
2021/04/13 11:03:34;;;;;;;5.10;4.60;;;40.30;58.80;;;;;;4949734;28;20332;-49
2021/04/13 11:06:34;;;;;;;4.80;4.40;;;40.20;58.80;;;;;;4936605;29;20230;-51
2021/04/13 11:09:39;;;;;;;5.22;4.82;;;40.00;58.30;;;;;;4936711;29;20225;-53
2021/04/13 11:12:51;;;;;;;5.47;4.80;;;39.80;59.00;;;;;;4932168;29;20487;-53
2021/04/13 11:16:01;;;;;;;5.30;4.90;;;39.50;58.40;;;;;;4934651;29;20199;-51
2021/04/13 11:18:51;;;;;;;5.38;4.97;;;39.10;58.80;;;;;;4895860;29;20213;-50
2021/04/13 11:21:41;;;;;;;5.78;5.28;;;38.80;58.90;;;;;;4865984;29;20263;-53
2021/04/13 11:24:39;;;;;;;7.53;5.70;;;38.50;59.60;;;;;;4842564;29;20273;-53
2021/04/13 11:27:47;;;;;;;5.50;5.10;;;38.20;60.10;;;;;;4892076;29;20211;-51
2021/04/13 11:30:46;;;;;;;5.95;5.40;;;37.90;60.70;;;;;;4927065;28;20276;-54
2021/04/13 11:33:51;;;;;;;5.65;5.15;;;37.60;61.60;;;;;;4951373;28;20233;-54
2021/04/13 11:36:26;;;;;;;5.40;4.90;;;37.40;62.40;;;;;;4951538;28;20650;-50
2021/04/13 11:39:02;;;;;;;5.45;4.95;;;37.10;62.80;;;;;;4953490;28;20740;-52
2021/04/13 11:42:07;;;;;;;5.80;5.30;;;36.90;63.50;;;;;;4955816;28;20275;-51
2021/04/13 11:44:40;;;;;;;7.38;6.68;;;36.70;64.10;;;;;;5010283;28;20273;-52
2021/04/13 11:47:15;;;;;;;8.52;7.72;;;36.50;64.50;;;;;;5025460;28;20198;-51
2021/04/13 11:49:47;;;;;;;9.27;8.38;;;36.30;65.30;;;;;;5088634;28;20567;-52
2021/04/13 11:52:29;;;;;;;10.25;9.27;;;36.20;65.50;;;;;;5094462;28;20185;-51
2021/04/13 11:55:00;;;;;;;10.55;9.55;;;36.00;66.10;;;;;;5092570;28;20633;-53
2021/04/13 11:57:33;;;;;;;8.32;7.53;;;35.90;66.30;;;;;;5093673;28;20188;-50
2021/04/13 12:00:27;;;;;;;8.02;7.32;;;35.80;66.50;;;;;;5093234;28;20200;-51
2021/04/13 12:03:33;;;;;;;7.35;6.65;;;35.60;67.20;;;;;;5090372;28;20216;-49
2021/04/13 12:06:06;;;;;;;7.03;6.35;;;35.50;68.50;;;;;;5091301;28;20218;-52
2021/04/13 12:08:55;;;;;;;7.07;6.38;;;35.40;67.90;;;;;;5091534;28;20665;-52
2021/04/13 12:11:42;;;;;;;7.05;6.35;;;35.30;68.70;;;;;;5030990;28;20249;-54
2021/04/13 12:14:32;;;;;;;7.45;6.72;;;35.20;69.00;;;;;;5027879;28;20230;-55
2021/04/13 12:17:24;;;;;;;8.32;6.78;;;35.10;69.30;;;;;;5030463;28;20202;-49
2021/04/13 12:20:34;;;;;;;7.30;6.60;;;35.00;69.30;;;;;;5027022;28;20895;-53
2021/04/13 12:23:48;;;;;;;9.10;6.90;;;34.90;69.80;;;;;;5027092;28;20217;-53
2021/04/13 12:26:34;;;;;;;7.10;6.50;;;34.80;70.50;;;;;;5026768;28;20320;-49
2021/04/13 12:29:38;;;;;;;6.90;6.28;;;34.70;71.00;;;;;;5030724;28;20210;-51
2021/04/13 12:32:26;;;;;;;7.22;6.60;;;34.60;71.00;;;;;;4970089;28;20236;-51
2021/04/13 12:34:58;;;;;;;7.32;5.97;;;34.50;71.50;;;;;;4973636;28;20197;-51
2021/04/13 12:37:36;;;;;;;6.55;5.70;;;34.40;71.70;;;;;;5070245;28;20247;-51
2021/04/13 12:40:32;;;;;;;7.20;6.60;;;34.40;72.60;;;;;;5092245;28;20193;-50
2021/04/13 12:43:27;;;;;;;7.45;6.50;;;34.20;73.00;;;;;;5093408;28;20839;-50
2021/04/13 12:45:59;;;;;;;7.20;6.40;;;34.20;72.90;;;;;;5078443;28;20747;-56
2021/04/13 12:48:43;;;;;;;8.13;7.32;;;34.20;72.80;;;;;;5095913;28;20197;-54
2021/04/13 12:51:21;;;;;;;8.63;7.50;;;34.10;73.30;;;;;;5097137;28;20269;-55
2021/04/13 12:53:52;;;;;;;7.78;7.07;;;34.00;73.90;;;;;;5098258;28;20688;-54
2021/04/13 12:56:30;;;;;;;8.20;7.40;;;34.00;73.90;;;;;;5032962;28;20211;-55
2021/04/13 12:59:17;;;;;;;7.60;6.90;;;33.90;74.70;;;;;;5031150;28;20191;-52
2021/04/13 13:01:48;;;;;;;7.00;6.20;;;33.90;74.60;;;;;;5033589;28;20195;-52
2021/04/13 13:04:20;;;;;;;7.10;6.10;;;33.80;74.80;;;;;;5033132;28;20289;-53
2021/04/13 13:06:54;;;;;;;7.15;6.43;;;33.70;75.00;;;;;;5033535;28;20214;-53
2021/04/13 13:09:30;;;;;;;6.53;6.03;;;33.80;75.50;;;;;;5033722;28;20233;-55
2021/04/13 13:12:08;;;;;;;7.15;6.28;;;33.70;75.70;;;;;;5032072;28;20237;-54
2021/04/13 13:14:39;;;;;;;5.88;5.28;;;33.70;76.00;;;;;;5034012;28;20191;-53
2021/04/13 13:17:10;;;;;;;6.55;5.95;;;33.60;75.80;;;;;;5033296;28;20201;-54
2021/04/13 13:19:47;;;;;;;6.75;6.15;;;33.60;76.00;;;;;;5034352;28;20191;-54
2021/04/13 13:22:19;;;;;;;7.68;6.55;;;33.60;76.50;;;;;;5031788;28;20203;-55
2021/04/13 13:24:51;;;;;;;6.82;6.13;;;33.50;76.40;;;;;;5034148;28;20206;-55
2021/04/13 13:27:28;;;;;;;6.70;5.95;;;33.50;76.50;;;;;;5064160;28;20786;-52
2021/04/13 13:30:00;;;;;;;6.40;5.90;;;33.50;77.00;;;;;;5094939;28;20211;-54
2021/04/13 13:32:31;;;;;;;6.55;5.95;;;33.50;77.20;;;;;;5096743;28;20228;-53
2021/04/13 13:35:03;;;;;;;5.78;5.28;;;33.50;77.40;;;;;;5096934;28;20238;-52
2021/04/13 13:37:35;;;;;;;6.80;6.20;;;33.40;77.50;;;;;;5096075;28;20193;-50
2021/04/13 13:40:08;;;;;;;8.20;6.45;;;33.40;77.70;;;;;;5096325;28;20220;-60